Time;durP1;ratioP1;P1;durP2;ratioP2;P2;SDS_P1;SDS_P2;PMS_P1;PMS_P2;Temp;Humidity;BMP_temperature;BMP_pressure;BME280_temperature;BME280_humidity;BME280_pressure;Samples;Min_cycle;Max_cycle;Signal;HPM_P1;HPM_P2
2022/11/25 00:01:59;;;;;;;9.18;6.70;;;3.10;99.90;;;;;;4993478;28;20205;-71
2022/11/25 00:04:24;;;;;;;10.10;6.90;;;3.10;99.90;;;;;;4997641;28;20557;-72
2022/11/25 00:06:50;;;;;;;13.43;7.00;;;3.10;99.90;;;;;;4995426;28;20252;-72
2022/11/25 00:09:15;;;;;;;9.20;7.15;;;3.00;99.90;;;;;;4993866;28;20205;-74
2022/11/25 00:11:42;;;;;;;8.02;6.65;;;2.90;99.90;;;;;;5001384;28;20248;-72
2022/11/25 00:14:11;;;;;;;7.15;6.13;;;2.90;99.90;;;;;;4993327;28;20178;-72
2022/11/25 00:16:37;;;;;;;9.57;6.88;;;2.90;99.90;;;;;;4993629;28;20181;-71
2022/11/25 00:19:03;;;;;;;12.80;6.88;;;3.00;99.90;;;;;;4989142;28;20248;-71
2022/11/25 00:21:32;;;;;;;9.68;6.60;;;2.90;99.90;;;;;;4999241;28;20588;-71
2022/11/25 00:24:00;;;;;;;6.85;6.15;;;2.90;99.90;;;;;;4986736;28;20232;-72
2022/11/25 00:26:28;;;;;;;7.13;6.07;;;2.90;99.90;;;;;;4996604;28;20174;-74
2022/11/25 00:28:56;;;;;;;7.72;6.53;;;2.90;99.90;;;;;;4985780;28;20182;-72
2022/11/25 00:31:27;;;;;;;6.82;5.85;;;2.80;99.90;;;;;;4992666;28;20197;-72
2022/11/25 00:33:53;;;;;;;7.03;6.00;;;2.70;99.90;;;;;;4992937;28;20231;-72
2022/11/25 00:36:36;;;;;;;6.43;5.80;;;2.80;99.90;;;;;;4989686;28;20218;-72
2022/11/25 00:39:23;;;;;;;6.45;5.35;;;2.70;99.90;;;;;;4992676;28;20216;-72
2022/11/25 00:44:36;;;;;;;5.85;5.35;;;2.60;99.90;;;;;;4993303;28;20279;-72
2022/11/25 00:47:11;;;;;;;7.05;6.30;;;2.60;99.90;;;;;;4992796;28;20224;-72
2022/11/25 00:49:39;;;;;;;6.20;5.70;;;2.60;99.90;;;;;;4992335;28;20232;-72
2022/11/25 00:52:05;;;;;;;8.63;6.15;;;2.60;99.90;;;;;;4991001;28;20586;-73
2022/11/25 00:54:31;;;;;;;6.13;5.57;;;2.60;99.90;;;;;;4992372;28;20556;-73
2022/11/25 00:56:57;;;;;;;6.07;5.25;;;2.60;99.90;;;;;;4990347;28;20565;-73
2022/11/25 00:59:23;;;;;;;6.85;6.05;;;2.50;99.90;;;;;;5000668;28;20214;-73
2022/11/25 01:01:48;;;;;;;6.88;5.93;;;2.40;99.90;;;;;;4989720;28;20649;-74
2022/11/25 01:04:15;;;;;;;9.27;5.88;;;2.40;99.90;;;;;;4983743;28;20244;-73
2022/11/25 01:06:41;;;;;;;6.88;5.43;;;2.40;99.90;;;;;;4984915;28;20182;-72
2022/11/25 01:09:08;;;;;;;8.02;5.68;;;2.20;99.90;;;;;;4985885;28;20688;-71
2022/11/25 01:11:33;;;;;;;6.38;5.70;;;2.30;99.90;;;;;;4978110;28;20245;-73
2022/11/25 01:13:59;;;;;;;12.77;5.90;;;2.20;99.90;;;;;;4976543;28;20922;-72
2022/11/25 01:16:25;;;;;;;7.85;5.97;;;2.20;99.90;;;;;;4980913;28;20185;-73
2022/11/25 01:18:51;;;;;;;7.57;5.88;;;2.20;99.90;;;;;;4980208;28;20677;-73
2022/11/25 01:21:20;;;;;;;6.57;5.97;;;2.20;99.90;;;;;;4983295;28;20560;-71
2022/11/25 01:23:47;;;;;;;6.15;5.30;;;2.20;99.90;;;;;;4984765;28;20174;-72
2022/11/25 01:26:16;;;;;;;8.02;6.07;;;2.10;99.90;;;;;;4979728;28;20608;-73
2022/11/25 01:28:41;;;;;;;9.02;6.60;;;2.10;99.90;;;;;;4979131;28;20739;-73
2022/11/25 01:31:10;;;;;;;10.65;6.22;;;2.10;99.90;;;;;;4978238;28;20277;-73
2022/11/25 01:33:37;;;;;;;10.02;6.40;;;2.10;99.90;;;;;;4976038;28;20190;-71
2022/11/25 01:36:08;;;;;;;7.28;6.50;;;2.10;99.90;;;;;;4977448;28;20717;-72
2022/11/25 01:38:34;;;;;;;7.80;6.30;;;2.10;99.90;;;;;;4977944;28;20581;-72
2022/11/25 01:41:01;;;;;;;7.47;6.38;;;2.10;99.90;;;;;;4980062;28;20190;-73
2022/11/25 01:43:27;;;;;;;15.82;9.15;;;2.30;99.90;;;;;;4977380;28;20205;-71
2022/11/25 01:46:14;;;;;;;14.55;7.53;;;2.40;99.90;;;;;;4978105;28;20695;-74
2022/11/25 01:48:54;;;;;;;9.13;7.88;;;2.50;99.90;;;;;;4986620;28;20539;-71
2022/11/25 01:51:28;;;;;;;17.50;8.70;;;2.70;99.90;;;;;;4983033;28;20280;-72
2022/11/25 01:53:57;;;;;;;30.90;9.65;;;2.90;99.90;;;;;;4981935;28;20174;-72
2022/11/25 01:56:24;;;;;;;30.30;8.95;;;3.00;99.90;;;;;;4987957;28;20263;-73
2022/11/25 01:58:50;;;;;;;9.68;6.78;;;3.20;99.90;;;;;;4990836;28;20198;-73
2022/11/25 02:01:16;;;;;;;33.95;9.00;;;3.30;99.90;;;;;;4989608;28;20185;-73
2022/11/25 02:03:45;;;;;;;33.63;9.32;;;3.40;99.90;;;;;;4987360;28;20177;-72
2022/11/25 02:06:18;;;;;;;27.80;8.43;;;3.50;99.90;;;;;;4976363;28;20210;-74
2022/11/25 02:08:48;;;;;;;7.28;6.15;;;3.50;99.90;;;;;;4973174;28;20189;-74
2022/11/25 02:11:15;;;;;;;60.35;9.73;;;3.60;99.90;;;;;;4973736;28;20186;-73
2022/11/25 02:13:42;;;;;;;41.30;9.13;;;3.60;99.90;;;;;;4977535;28;20696;-73
2022/11/25 02:16:08;;;;;;;54.85;11.10;;;3.60;99.90;;;;;;4985157;28;20209;-71
2022/11/25 02:18:33;;;;;;;37.97;8.30;;;3.60;99.90;;;;;;4978568;28;20202;-73
2022/11/25 02:20:59;;;;;;;43.97;8.65;;;3.70;99.90;;;;;;4978926;28;20206;-72
2022/11/25 02:23:42;;;;;;;43.70;9.32;;;3.60;99.90;;;;;;4978101;28;20198;-73
2022/11/25 02:26:08;;;;;;;40.28;9.73;;;3.80;99.90;;;;;;4979664;28;20198;-71
2022/11/25 02:28:34;;;;;;;35.78;8.50;;;3.70;99.90;;;;;;4980338;28;20594;-72
2022/11/25 02:30:59;;;;;;;20.63;6.78;;;3.60;99.90;;;;;;4980381;28;20195;-73
2022/11/25 02:33:26;;;;;;;12.45;6.32;;;3.60;99.90;;;;;;4981528;28;20273;-73
2022/11/25 02:35:55;;;;;;;25.40;7.40;;;3.60;99.90;;;;;;4979192;28;20205;-72
2022/11/25 02:38:41;;;;;;;36.67;8.57;;;3.60;99.90;;;;;;4978812;28;20198;-73
2022/11/25 02:41:09;;;;;;;16.95;7.00;;;3.50;99.90;;;;;;4979127;28;20228;-72
2022/11/25 02:43:36;;;;;;;28.92;7.63;;;3.50;99.90;;;;;;4978554;28;20277;-73
2022/11/25 02:46:06;;;;;;;22.52;7.55;;;3.50;99.90;;;;;;4983717;28;20618;-72
2022/11/25 02:48:33;;;;;;;46.90;8.13;;;3.50;99.90;;;;;;4981712;28;20205;-72
2022/11/25 02:50:59;;;;;;;11.18;7.13;;;3.40;99.90;;;;;;4983850;28;20187;-73
2022/11/25 02:53:25;;;;;;;33.15;8.05;;;3.40;99.90;;;;;;4982028;28;20269;-72
2022/11/25 02:55:51;;;;;;;35.63;8.82;;;3.50;99.90;;;;;;4981923;28;20213;-73
2022/11/25 02:58:17;;;;;;;54.75;11.00;;;3.40;99.90;;;;;;4981409;28;20237;-72
2022/11/25 03:00:43;;;;;;;41.70;9.07;;;3.40;99.90;;;;;;4986996;28;20733;-73
2022/11/25 03:03:10;;;;;;;23.13;8.32;;;3.30;99.90;;;;;;4983237;28;20187;-71
2022/11/25 03:05:35;;;;;;;18.20;7.75;;;3.40;99.90;;;;;;4985088;28;20198;-72
2022/11/25 03:08:01;;;;;;;42.60;9.55;;;3.50;99.90;;;;;;4980014;28;20233;-72
2022/11/25 03:10:27;;;;;;;44.90;9.48;;;3.60;99.90;;;;;;4980798;28;20525;-72
2022/11/25 03:12:53;;;;;;;29.85;8.50;;;3.60;99.90;;;;;;4982839;28;20351;-72
2022/11/25 03:15:19;;;;;;;10.02;6.40;;;3.60;99.90;;;;;;4986471;28;20209;-72
2022/11/25 03:17:45;;;;;;;39.13;8.32;;;3.60;99.90;;;;;;4983940;28;20612;-72
2022/11/25 03:20:14;;;;;;;19.95;7.82;;;3.60;99.90;;;;;;4980677;28;20253;-72
2022/11/25 03:22:40;;;;;;;78.05;10.77;;;3.70;99.90;;;;;;4983161;28;20243;-73
2022/11/25 03:25:07;;;;;;;24.75;6.97;;;3.50;99.90;;;;;;4984409;28;20700;-72
2022/11/25 03:27:33;;;;;;;27.63;7.50;;;3.60;99.90;;;;;;4982800;28;20329;-73
2022/11/25 03:29:59;;;;;;;17.25;6.30;;;3.60;99.90;;;;;;4980816;28;20183;-73
2022/11/25 03:32:25;;;;;;;36.13;7.60;;;3.50;99.90;;;;;;4980982;28;20206;-73
2022/11/25 03:34:50;;;;;;;9.32;5.82;;;3.50;99.90;;;;;;4979590;28;20590;-73
2022/11/25 03:37:16;;;;;;;47.13;7.50;;;3.50;99.90;;;;;;4983951;28;20189;-73
2022/11/25 03:39:42;;;;;;;33.28;7.20;;;3.50;99.90;;;;;;4979105;28;20186;-73
2022/11/25 03:42:07;;;;;;;43.70;7.53;;;3.30;99.90;;;;;;4980981;28;20477;-72
2022/11/25 03:44:33;;;;;;;43.90;6.85;;;3.20;99.90;;;;;;4981268;28;20209;-72
2022/11/25 03:46:58;;;;;;;26.98;6.30;;;3.10;99.90;;;;;;4981540;28;20185;-72
2022/11/25 03:49:24;;;;;;;36.92;7.05;;;3.20;99.90;;;;;;4988239;28;20265;-72
2022/11/25 03:51:50;;;;;;;24.15;5.82;;;3.10;99.90;;;;;;4992297;28;20269;-71
2022/11/25 03:54:15;;;;;;;29.05;6.18;;;3.10;99.90;;;;;;4993559;28;20188;-71
2022/11/25 03:56:41;;;;;;;30.88;6.15;;;3.00;99.90;;;;;;4991949;28;20292;-71
2022/11/25 03:59:06;;;;;;;20.52;5.20;;;3.00;99.90;;;;;;5002006;28;20206;-76
2022/11/25 04:01:32;;;;;;;16.40;4.65;;;2.90;99.90;;;;;;4994593;28;20192;-72
2022/11/25 04:03:57;;;;;;;30.58;5.60;;;2.90;99.90;;;;;;4994026;28;20652;-72
2022/11/25 04:06:23;;;;;;;42.22;5.78;;;2.80;99.90;;;;;;4993526;28;20285;-74
2022/11/25 04:08:49;;;;;;;38.67;6.30;;;2.90;99.90;;;;;;5001791;28;20178;-73
2022/11/25 04:11:16;;;;;;;37.28;6.13;;;2.80;99.90;;;;;;4990248;28;20548;-73
2022/11/25 04:13:41;;;;;;;21.95;6.00;;;2.80;99.90;;;;;;4996836;28;20185;-73
2022/11/25 04:16:20;;;;;;;35.60;6.15;;;2.80;99.90;;;;;;4995166;28;20580;-73
2022/11/25 04:18:46;;;;;;;26.27;6.07;;;2.80;99.90;;;;;;4985663;28;20212;-72
2022/11/25 04:21:12;;;;;;;22.15;5.63;;;2.80;99.90;;;;;;4993069;28;20190;-73
2022/11/25 04:23:37;;;;;;;35.30;7.22;;;2.80;99.90;;;;;;4997251;28;20260;-73
2022/11/25 04:26:03;;;;;;;9.18;5.32;;;2.80;99.90;;;;;;4986541;28;20195;-73
2022/11/25 04:28:29;;;;;;;25.88;5.82;;;2.80;99.90;;;;;;4978287;28;20748;-73
2022/11/25 04:30:54;;;;;;;23.23;5.57;;;2.70;99.90;;;;;;4978440;28;20225;-73
2022/11/25 04:33:20;;;;;;;26.40;6.28;;;2.70;99.90;;;;;;4978039;28;20700;-73
2022/11/25 04:35:46;;;;;;;56.70;6.65;;;2.80;99.90;;;;;;4980950;28;20210;-72
2022/11/25 04:38:12;;;;;;;19.42;5.95;;;2.80;99.90;;;;;;4984313;28;20214;-72
2022/11/25 04:40:38;;;;;;;47.33;6.93;;;2.90;99.90;;;;;;4982891;28;20636;-72
2022/11/25 04:43:03;;;;;;;36.13;6.68;;;2.90;99.90;;;;;;4978940;28;20256;-72
2022/11/25 04:45:29;;;;;;;31.55;7.60;;;2.70;99.90;;;;;;4983036;28;20648;-72
2022/11/25 04:47:54;;;;;;;44.97;7.78;;;2.70;99.90;;;;;;4989164;28;20193;-72
2022/11/25 04:50:22;;;;;;;51.42;7.45;;;2.70;99.90;;;;;;4983743;28;20192;-72
2022/11/25 04:52:48;;;;;;;21.50;6.53;;;2.70;99.90;;;;;;4980527;28;20269;-73
2022/11/25 04:55:13;;;;;;;47.22;7.03;;;2.80;99.90;;;;;;4981032;28;20752;-72
2022/11/25 04:57:39;;;;;;;19.88;5.53;;;2.70;99.90;;;;;;4986401;28;20292;-72
2022/11/25 05:00:05;;;;;;;43.30;7.18;;;2.70;99.90;;;;;;4981635;28;20542;-73
2022/11/25 05:02:31;;;;;;;18.63;6.18;;;2.70;99.90;;;;;;4978591;28;20273;-72
2022/11/25 05:04:57;;;;;;;11.93;5.45;;;2.70;99.90;;;;;;4983362;28;20276;-72
2022/11/25 05:07:24;;;;;;;8.18;4.75;;;2.60;99.90;;;;;;4987546;28;20193;-72
2022/11/25 05:09:50;;;;;;;26.40;6.22;;;2.70;99.90;;;;;;4979984;28;20344;-72
2022/11/25 05:12:19;;;;;;;40.72;6.40;;;2.60;99.90;;;;;;4976962;28;20272;-72
2022/11/25 05:14:45;;;;;;;21.42;6.82;;;2.60;99.90;;;;;;4981325;28;20194;-73
2022/11/25 05:17:20;;;;;;;34.83;6.78;;;2.50;99.90;;;;;;4979810;28;20713;-73
2022/11/25 05:19:46;;;;;;;32.03;6.78;;;2.50;99.90;;;;;;4985429;28;20551;-73
2022/11/25 05:22:14;;;;;;;8.00;5.22;;;2.50;99.90;;;;;;4979922;28;20177;-73
2022/11/25 05:24:40;;;;;;;27.65;7.18;;;2.60;99.90;;;;;;4982552;28;20218;-73
2022/11/25 05:27:06;;;;;;;22.88;6.68;;;2.60;99.90;;;;;;4977481;28;20235;-73
2022/11/25 05:29:32;;;;;;;11.43;6.90;;;2.60;99.90;;;;;;4983982;28;20273;-73
2022/11/25 05:31:57;;;;;;;14.55;6.55;;;2.50;99.90;;;;;;4982118;28;20655;-73
2022/11/25 05:34:23;;;;;;;13.63;6.18;;;2.50;99.90;;;;;;4975913;28;20293;-73
2022/11/25 05:36:48;;;;;;;19.65;6.47;;;2.50;99.90;;;;;;4977957;28;20185;-73
2022/11/25 05:39:14;;;;;;;27.35;7.10;;;2.60;99.90;;;;;;4981270;28;20328;-71
2022/11/25 05:41:39;;;;;;;11.25;6.38;;;2.60;99.90;;;;;;4989012;28;20289;-72
2022/11/25 05:44:05;;;;;;;9.98;7.10;;;2.70;99.90;;;;;;4980946;28;20560;-73
2022/11/25 05:46:31;;;;;;;7.38;6.60;;;2.80;99.90;;;;;;4982131;28;20179;-72
2022/11/25 05:48:57;;;;;;;16.90;7.40;;;2.70;99.90;;;;;;4980438;28;20186;-72
2022/11/25 05:51:24;;;;;;;9.25;6.80;;;2.80;99.90;;;;;;4979339;28;20194;-73
2022/11/25 05:53:50;;;;;;;14.55;7.65;;;2.80;99.90;;;;;;4980277;28;20194;-73
2022/11/25 05:56:16;;;;;;;8.15;7.07;;;2.80;99.90;;;;;;4978724;28;20209;-73
2022/11/25 05:58:42;;;;;;;9.00;6.82;;;2.80;99.90;;;;;;4980855;28;20209;-73
2022/11/25 06:01:10;;;;;;;14.80;7.43;;;2.90;99.90;;;;;;4980199;28;20653;-74
2022/11/25 06:03:37;;;;;;;10.88;7.63;;;2.80;99.90;;;;;;4980927;28;20212;-73
2022/11/25 06:06:03;;;;;;;18.90;7.53;;;2.80;99.90;;;;;;4981605;28;20190;-73
2022/11/25 06:08:29;;;;;;;14.30;7.05;;;2.70;99.90;;;;;;4984931;28;20632;-72
2022/11/25 06:10:54;;;;;;;7.13;6.53;;;2.80;99.90;;;;;;4983265;28;20196;-72
2022/11/25 06:13:20;;;;;;;13.85;7.93;;;2.80;99.90;;;;;;4982508;28;20186;-72
2022/11/25 06:15:46;;;;;;;9.32;6.78;;;2.80;99.90;;;;;;4985258;28;20289;-72
2022/11/25 06:18:14;;;;;;;7.80;6.75;;;2.80;99.90;;;;;;4985899;28;20274;-73
2022/11/25 06:20:41;;;;;;;18.20;7.72;;;2.70;99.90;;;;;;4983088;28;20194;-72
2022/11/25 06:23:07;;;;;;;12.05;7.30;;;2.80;99.90;;;;;;4982784;28;20273;-72
2022/11/25 06:25:33;;;;;;;12.75;7.75;;;2.70;99.90;;;;;;4985701;28;20209;-72
2022/11/25 06:27:59;;;;;;;12.50;7.30;;;2.70;99.90;;;;;;4978384;28;20186;-72
2022/11/25 06:30:25;;;;;;;13.20;7.10;;;2.80;99.90;;;;;;4982757;28;20170;-73
2022/11/25 06:32:53;;;;;;;8.95;7.25;;;2.70;99.90;;;;;;4980648;28;20273;-73
2022/11/25 06:35:18;;;;;;;14.05;7.65;;;2.70;99.90;;;;;;4981783;28;20206;-73
2022/11/25 06:37:44;;;;;;;11.27;7.50;;;2.60;99.90;;;;;;4981698;28;20202;-73
2022/11/25 06:40:10;;;;;;;12.38;7.40;;;2.50;99.90;;;;;;4982943;28;20678;-73
2022/11/25 06:42:37;;;;;;;7.47;6.88;;;2.60;99.90;;;;;;4981013;28;20190;-74
2022/11/25 06:45:04;;;;;;;27.58;9.02;;;2.60;99.90;;;;;;4988795;28;20190;-71
2022/11/25 06:47:29;;;;;;;11.55;7.68;;;2.70;99.90;;;;;;4981176;28;20565;-73
2022/11/25 06:49:55;;;;;;;22.92;8.90;;;2.70;99.90;;;;;;4983074;28;20185;-71
2022/11/25 06:52:21;;;;;;;10.88;8.35;;;2.70;99.90;;;;;;4983610;28;20187;-72
2022/11/25 06:54:46;;;;;;;14.57;7.78;;;2.80;99.90;;;;;;4983629;28;20715;-72
2022/11/25 06:57:16;;;;;;;9.13;7.72;;;2.80;99.90;;;;;;4983174;28;20237;-73
2022/11/25 06:59:42;;;;;;;8.15;7.38;;;2.80;99.90;;;;;;4983852;28;20594;-73
2022/11/25 07:02:10;;;;;;;19.52;8.85;;;2.90;99.90;;;;;;4984322;28;20178;-72
2022/11/25 07:04:35;;;;;;;18.35;8.43;;;2.90;99.90;;;;;;4985755;28;20198;-71
2022/11/25 07:07:01;;;;;;;34.20;8.63;;;3.00;99.90;;;;;;4990333;28;20696;-72
2022/11/25 07:09:26;;;;;;;11.52;7.97;;;2.90;99.90;;;;;;4994803;28;20260;-73
2022/11/25 07:11:52;;;;;;;7.68;6.97;;;3.10;99.90;;;;;;4990526;28;20670;-71
2022/11/25 07:14:17;;;;;;;16.75;9.05;;;3.10;99.90;;;;;;4994363;28;20193;-71
2022/11/25 07:16:44;;;;;;;25.00;8.73;;;3.10;99.90;;;;;;4989348;28;20186;-76
2022/11/25 07:19:11;;;;;;;17.02;8.27;;;3.10;99.90;;;;;;4989016;28;20214;-77
2022/11/25 07:21:37;;;;;;;24.63;9.05;;;3.10;99.90;;;;;;5001931;28;20540;-75
2022/11/25 07:24:05;;;;;;;16.23;8.65;;;3.10;99.90;;;;;;4994733;28;20210;-77
2022/11/25 07:26:34;;;;;;;22.77;8.98;;;3.20;99.90;;;;;;4993045;28;20189;-76
2022/11/25 07:29:02;;;;;;;34.47;9.82;;;3.20;99.90;;;;;;5000499;28;20232;-76
2022/11/25 07:31:37;;;;;;;23.52;8.18;;;3.30;99.90;;;;;;4994484;28;20204;-75
2022/11/25 07:34:13;;;;;;;15.88;7.78;;;3.30;99.90;;;;;;4993771;28;20532;-77
2022/11/25 07:36:40;;;;;;;19.85;8.55;;;3.20;99.90;;;;;;4987365;28;20181;-75
2022/11/25 07:39:09;;;;;;;19.10;8.93;;;3.20;99.90;;;;;;4977891;28;20673;-76
2022/11/25 07:41:35;;;;;;;16.80;8.52;;;3.20;99.90;;;;;;4975157;28;20568;-76
2022/11/25 07:44:04;;;;;;;15.68;8.90;;;3.20;99.90;;;;;;4977640;28;20194;-77
2022/11/25 07:46:36;;;;;;;26.75;8.80;;;3.20;99.90;;;;;;4984995;28;20190;-71
2022/11/25 07:49:04;;;;;;;16.10;8.52;;;3.20;99.90;;;;;;4984616;28;20182;-72
2022/11/25 07:51:38;;;;;;;16.02;8.10;;;3.30;99.90;;;;;;4986577;28;20561;-72
2022/11/25 07:54:06;;;;;;;29.35;8.35;;;3.30;99.90;;;;;;4983093;28;20178;-73
2022/11/25 07:56:36;;;;;;;8.18;7.18;;;3.40;99.90;;;;;;4981997;28;20221;-73
2022/11/25 07:59:03;;;;;;;11.75;8.73;;;3.40;99.90;;;;;;4986089;28;20198;-73
2022/11/25 08:01:29;;;;;;;20.70;8.45;;;3.60;99.90;;;;;;4985713;28;20194;-74
2022/11/25 08:03:54;;;;;;;9.93;7.50;;;3.60;99.90;;;;;;4983286;28;20194;-73
2022/11/25 08:06:25;;;;;;;8.02;7.15;;;3.60;99.90;;;;;;4977777;28;20512;-74
2022/11/25 08:08:54;;;;;;;16.00;8.13;;;3.60;99.90;;;;;;4981578;28;20281;-73
2022/11/25 08:11:22;;;;;;;11.35;7.70;;;3.40;99.90;;;;;;4982090;28;20186;-75
2022/11/25 08:13:48;;;;;;;8.55;7.40;;;3.30;99.90;;;;;;4984312;28;20681;-74
2022/11/25 08:16:15;;;;;;;8.35;7.40;;;3.30;99.90;;;;;;4985846;28;20232;-74
2022/11/25 08:18:41;;;;;;;7.57;6.97;;;3.30;99.90;;;;;;4982036;28;20225;-75
2022/11/25 08:21:09;;;;;;;8.50;7.80;;;3.30;99.90;;;;;;4988609;28;20174;-73
2022/11/25 08:23:35;;;;;;;8.35;6.95;;;3.30;99.90;;;;;;4988636;28;20628;-73
2022/11/25 08:26:13;;;;;;;6.88;6.30;;;3.40;99.90;;;;;;4995633;28;20190;-74
2022/11/25 08:28:40;;;;;;;9.45;7.80;;;3.50;99.90;;;;;;4991697;28;20649;-74
2022/11/25 08:31:11;;;;;;;8.75;7.13;;;3.60;99.90;;;;;;4992817;28;20614;-74
2022/11/25 08:33:37;;;;;;;12.07;7.55;;;3.60;99.90;;;;;;5007621;28;20534;-74
2022/11/25 08:36:04;;;;;;;11.38;7.88;;;3.70;99.90;;;;;;4993537;28;20197;-74
2022/11/25 08:38:29;;;;;;;8.70;7.47;;;3.80;99.90;;;;;;4986793;28;20202;-74
2022/11/25 08:40:55;;;;;;;7.70;7.00;;;3.80;99.90;;;;;;4990350;28;20182;-75
2022/11/25 08:43:22;;;;;;;8.10;7.15;;;3.80;99.90;;;;;;4984957;28;20566;-74
2022/11/25 08:45:48;;;;;;;9.43;7.45;;;3.90;99.90;;;;;;4993652;28;20209;-74
2022/11/25 08:48:15;;;;;;;8.43;7.63;;;4.00;99.90;;;;;;4998433;28;20194;-74
2022/11/25 08:50:45;;;;;;;8.30;7.50;;;4.10;99.90;;;;;;4994162;28;20492;-74
2022/11/25 08:53:11;;;;;;;7.63;6.93;;;4.20;99.90;;;;;;4992390;28;20186;-75
2022/11/25 08:55:37;;;;;;;7.75;7.15;;;4.30;99.90;;;;;;4981848;28;20285;-73
2022/11/25 08:58:03;;;;;;;7.20;6.68;;;4.50;99.90;;;;;;4987297;28;20341;-74
2022/11/25 09:00:29;;;;;;;7.55;6.85;;;4.80;99.90;;;;;;4988845;28;20309;-73
2022/11/25 09:02:55;;;;;;;9.38;6.55;;;4.90;99.90;;;;;;4994713;28;20586;-73
2022/11/25 09:05:20;;;;;;;7.90;6.32;;;4.90;99.90;;;;;;4986877;28;20280;-73
2022/11/25 09:07:46;;;;;;;7.80;7.00;;;5.00;99.90;;;;;;4989348;28;20185;-73
2022/11/25 09:10:15;;;;;;;6.90;6.40;;;5.00;99.90;;;;;;4991474;28;20269;-74
2022/11/25 09:12:41;;;;;;;6.78;6.28;;;5.10;99.90;;;;;;4992155;28;20213;-73
2022/11/25 09:15:07;;;;;;;7.13;6.45;;;5.30;99.90;;;;;;4991051;28;20194;-73
2022/11/25 09:17:36;;;;;;;7.60;7.00;;;5.40;99.90;;;;;;4986169;28;20193;-73
2022/11/25 09:20:04;;;;;;;7.60;7.00;;;5.50;99.90;;;;;;4995130;28;20201;-73
2022/11/25 09:22:30;;;;;;;7.93;7.13;;;5.60;99.90;;;;;;4991892;28;20253;-73
2022/11/25 09:24:55;;;;;;;6.78;6.18;;;5.50;99.90;;;;;;4988142;28;20204;-73
2022/11/25 09:27:21;;;;;;;8.07;6.70;;;5.40;99.90;;;;;;4989334;28;20190;-73
2022/11/25 09:29:47;;;;;;;7.28;6.60;;;5.40;99.90;;;;;;4990930;28;20186;-72
2022/11/25 09:32:12;;;;;;;8.13;7.43;;;5.30;99.90;;;;;;4992148;28;20244;-73
2022/11/25 09:34:38;;;;;;;8.65;7.85;;;5.20;99.90;;;;;;4999468;28;20205;-72
2022/11/25 09:37:03;;;;;;;8.00;7.30;;;5.20;99.90;;;;;;4997968;28;20607;-72
2022/11/25 09:39:29;;;;;;;8.10;7.28;;;5.20;99.90;;;;;;4994961;28;20208;-73
2022/11/25 09:48:24;;;;;;;9.00;8.20;;;5.00;99.90;;;;;;4988610;28;20196;-71
2022/11/25 09:51:05;;;;;;;9.00;8.20;;;4.90;99.90;;;;;;4990764;28;20624;-73
2022/11/25 09:53:50;;;;;;;8.80;8.10;;;5.00;99.90;;;;;;4990905;28;20265;-75
2022/11/25 09:56:27;;;;;;;9.40;8.57;;;5.00;99.90;;;;;;4989736;28;20213;-74
2022/11/25 09:59:00;;;;;;;10.30;8.27;;;5.20;99.90;;;;;;4988877;28;20197;-73
2022/11/25 10:01:30;;;;;;;10.05;8.80;;;5.20;99.90;;;;;;4996701;28;20177;-73
2022/11/25 10:04:12;;;;;;;10.70;9.68;;;5.20;99.90;;;;;;4990963;28;20185;-73
2022/11/25 10:07:00;;;;;;;10.63;9.40;;;5.30;99.90;;;;;;4985735;28;20652;-73
2022/11/25 10:09:32;;;;;;;10.60;9.60;;;5.40;99.90;;;;;;4986368;28;20191;-72
2022/11/25 10:12:20;;;;;;;10.50;9.55;;;5.50;99.90;;;;;;4990203;28;20682;-72
2022/11/25 10:14:50;;;;;;;11.10;10.00;;;5.60;99.90;;;;;;4983719;28;20233;-74
2022/11/25 10:17:45;;;;;;;11.73;10.65;;;5.70;99.90;;;;;;4991189;28;20380;-72
2022/11/25 10:20:36;;;;;;;10.13;9.23;;;5.80;99.90;;;;;;4980870;28;20647;-72
2022/11/25 10:23:31;;;;;;;10.30;9.40;;;5.80;99.90;;;;;;4986101;28;20186;-75
2022/11/25 10:26:12;;;;;;;9.95;8.90;;;6.30;99.90;;;;;;4990869;28;20669;-74
2022/11/25 10:28:44;;;;;;;9.55;8.63;;;6.80;99.90;;;;;;4986222;28;20189;-72
2022/11/25 10:31:27;;;;;;;8.63;7.82;;;7.70;99.90;;;;;;4986220;28;20193;-72
2022/11/25 10:33:57;;;;;;;7.82;7.13;;;9.20;99.90;;;;;;4986431;28;20179;-72
2022/11/25 10:36:32;;;;;;;7.55;6.95;;;10.90;99.90;;;;;;4989387;28;20237;-72
2022/11/25 10:39:10;;;;;;;7.28;6.75;;;11.50;99.90;;;;;;4986635;28;20202;-72
2022/11/25 10:42:00;;;;;;;7.38;6.68;;;11.40;99.90;;;;;;4992780;28;20821;-73
2022/11/25 10:44:34;;;;;;;7.82;7.10;;;11.00;99.90;;;;;;4990789;28;20214;-72
2022/11/25 10:47:18;;;;;;;7.47;6.57;;;10.80;99.90;;;;;;4986835;28;20245;-72
2022/11/25 10:49:55;;;;;;;7.47;6.78;;;10.60;99.90;;;;;;4994239;28;20173;-73
2022/11/25 10:52:22;;;;;;;7.03;6.43;;;10.50;99.90;;;;;;4996179;28;20186;-72
2022/11/25 10:55:12;;;;;;;7.45;6.85;;;10.40;99.90;;;;;;4995402;28;20200;-73
2022/11/25 10:57:37;;;;;;;6.95;6.45;;;9.90;99.90;;;;;;4997226;28;20182;-73
2022/11/25 11:00:07;;;;;;;7.65;6.88;;;9.30;99.90;;;;;;5000936;28;20240;-73
2022/11/25 11:02:40;;;;;;;8.52;6.78;;;9.20;99.90;;;;;;5000663;28;20562;-75
2022/11/25 11:05:08;;;;;;;7.47;6.78;;;9.20;99.90;;;;;;5005552;28;20284;-74
2022/11/25 11:07:41;;;;;;;6.35;5.95;;;9.30;99.90;;;;;;4993926;28;20182;-74
2022/11/25 11:10:25;;;;;;;6.55;5.95;;;9.30;99.90;;;;;;5000548;28;20189;-74
2022/11/25 11:12:55;;;;;;;7.13;6.45;;;9.20;99.90;;;;;;5000297;28;20205;-75
2022/11/25 11:15:32;;;;;;;6.30;5.90;;;9.00;99.90;;;;;;4995290;28;20563;-74
2022/11/25 11:18:38;;;;;;;6.13;5.63;;;8.90;99.90;;;;;;5004139;28;20244;-74
2022/11/25 11:21:20;;;;;;;6.28;5.72;;;8.90;99.90;;;;;;5000343;28;20246;-74
2022/11/25 11:23:49;;;;;;;5.78;5.28;;;8.80;99.90;;;;;;4993276;28;20586;-74
2022/11/25 11:26:25;;;;;;;6.38;5.88;;;8.80;99.90;;;;;;4993028;28;20633;-74
2022/11/25 11:29:18;;;;;;;5.65;5.30;;;8.80;99.90;;;;;;4987561;28;20239;-74
2022/11/25 11:32:05;;;;;;;5.45;5.00;;;8.80;99.90;;;;;;4987938;28;20190;-73
2022/11/25 11:35:04;;;;;;;5.80;5.32;;;8.80;99.90;;;;;;4992115;28;20212;-74
2022/11/25 11:37:30;;;;;;;5.35;4.95;;;8.90;99.90;;;;;;4992319;28;20241;-75
2022/11/25 11:40:16;;;;;;;5.22;4.82;;;9.00;99.90;;;;;;4987543;28;20233;-75
2022/11/25 11:42:59;;;;;;;4.78;4.47;;;9.10;99.90;;;;;;4978560;28;20296;-74
2022/11/25 11:45:59;;;;;;;5.10;4.70;;;9.20;99.90;;;;;;4985282;28;20201;-73
2022/11/25 11:48:43;;;;;;;5.72;5.22;;;9.60;99.90;;;;;;4987463;28;20240;-75
2022/11/25 11:51:27;;;;;;;5.28;4.97;;;9.70;99.90;;;;;;4996352;28;20594;-76
2022/11/25 11:54:14;;;;;;;5.22;4.78;;;10.00;99.90;;;;;;4986738;28;20213;-74
2022/11/25 11:56:45;;;;;;;5.13;4.72;;;10.40;99.90;;;;;;4991133;28;20189;-75
2022/11/25 11:59:35;;;;;;;4.57;4.22;;;10.60;99.90;;;;;;4999384;28;20453;-73
2022/11/25 12:02:30;;;;;;;5.25;4.85;;;10.50;99.90;;;;;;4987167;28;20182;-73
2022/11/25 12:05:18;;;;;;;5.50;5.00;;;10.20;99.90;;;;;;4982646;28;20720;-73
2022/11/25 12:07:43;;;;;;;5.10;4.70;;;9.80;99.90;;;;;;4986417;28;20177;-73
2022/11/25 12:10:28;;;;;;;5.18;4.78;;;9.50;99.90;;;;;;5002143;28;20193;-73
2022/11/25 12:13:06;;;;;;;5.40;5.00;;;9.20;99.90;;;;;;4991574;28;20174;-73
2022/11/25 12:15:44;;;;;;;5.63;5.22;;;9.00;99.90;;;;;;4990496;28;20364;-73
2022/11/25 12:18:26;;;;;;;5.30;4.85;;;9.10;99.90;;;;;;4988122;28;20457;-75
2022/11/25 12:21:00;;;;;;;5.20;4.80;;;9.20;99.90;;;;;;4999034;28;20664;-74
2022/11/25 12:23:30;;;;;;;4.57;4.28;;;9.60;99.90;;;;;;4985694;28;20194;-74
2022/11/25 12:26:04;;;;;;;5.65;5.15;;;9.80;99.90;;;;;;4993230;28;20537;-74
2022/11/25 12:28:56;;;;;;;4.70;4.40;;;9.60;99.90;;;;;;4996934;28;20290;-74
2022/11/25 12:31:26;;;;;;;4.72;4.35;;;9.50;99.90;;;;;;4993371;28;20273;-74
2022/11/25 12:34:08;;;;;;;5.05;4.57;;;9.60;99.90;;;;;;4990971;28;20185;-74
2022/11/25 12:36:37;;;;;;;4.90;4.50;;;9.70;99.90;;;;;;4992974;28;20187;-73
2022/11/25 12:39:22;;;;;;;4.97;4.68;;;9.70;99.90;;;;;;4993124;28;20232;-73
2022/11/25 12:42:14;;;;;;;5.00;4.60;;;9.70;99.90;;;;;;4988202;28;20186;-73
2022/11/25 12:44:59;;;;;;;5.22;4.78;;;9.80;99.90;;;;;;4986860;28;20667;-73
2022/11/25 12:47:25;;;;;;;4.93;4.50;;;9.80;99.90;;;;;;4987138;28;20214;-73
2022/11/25 12:49:53;;;;;;;5.20;4.80;;;9.90;99.90;;;;;;4989712;28;20674;-73
2022/11/25 12:53:17;;;;;;;4.65;4.35;;;9.80;99.90;;;;;;4989374;28;20680;-73
2022/11/25 12:55:43;;;;;;;5.63;5.10;;;9.90;99.90;;;;;;4920981;28;20223;-72
2022/11/25 12:58:23;;;;;;;5.13;4.80;;;10.00;99.90;;;;;;4982547;28;20573;-75
2022/11/25 13:01:11;;;;;;;5.18;4.68;;;9.80;99.90;;;;;;4996215;28;20175;-76
2022/11/25 13:04:14;;;;;;;5.00;4.70;;;9.70;99.90;;;;;;4988788;28;20190;-76
2022/11/25 13:06:39;;;;;;;5.13;4.72;;;9.30;99.90;;;;;;4992187;28;20174;-76
2022/11/25 13:09:27;;;;;;;7.13;4.63;;;9.20;99.90;;;;;;4995291;28;20585;-76
2022/11/25 13:11:59;;;;;;;5.93;4.88;;;9.20;99.90;;;;;;4993631;28;20194;-76
2022/11/25 13:14:46;;;;;;;4.65;4.25;;;9.10;99.90;;;;;;4994963;28;20664;-76
2022/11/25 13:17:13;;;;;;;5.32;4.97;;;8.90;99.90;;;;;;4993020;28;20190;-76